sensor_id;sensor_type;location;lat;lon;timestamp;pressure;altitude;pressure_sealevel;temperature;humidity
77003;BME280;65939;50.060;14.288;2022-12-29T00:00:30;96957.47;;;5.31;73.14
77003;BME280;65939;50.060;14.288;2022-12-29T00:02:31;96954.88;;;5.31;73.46
77003;BME280;65939;50.060;14.288;2022-12-29T00:04:32;96946.97;;;5.32;73.27
77003;BME280;65939;50.060;14.288;2022-12-29T00:06:32;96945.19;;;5.33;73.11
77003;BME280;65939;50.060;14.288;2022-12-29T00:08:33;96951.19;;;5.33;73.47
77003;BME280;65939;50.060;14.288;2022-12-29T00:10:39;96951.91;;;5.35;73.56
77003;BME280;65939;50.060;14.288;2022-12-29T00:12:40;96938.81;;;5.37;73.23
77003;BME280;65939;50.060;14.288;2022-12-29T00:14:59;96935.41;;;5.36;73.55
77003;BME280;65939;50.060;14.288;2022-12-29T00:17:17;96928.44;;;5.37;73.26
77003;BME280;65939;50.060;14.288;2022-12-29T00:19:18;96927.78;;;5.35;72.79
77003;BME280;65939;50.060;14.288;2022-12-29T00:21:37;96932.00;;;5.36;73.25
77003;BME280;65939;50.060;14.288;2022-12-29T00:23:57;96935.41;;;5.36;72.96
77003;BME280;65939;50.060;14.288;2022-12-29T00:26:16;96934.47;;;5.37;73.13
77003;BME280;65939;50.060;14.288;2022-12-29T00:28:35;96929.16;;;5.39;73.00
77003;BME280;65939;50.060;14.288;2022-12-29T00:30:59;96924.69;;;5.41;72.34
77003;BME280;65939;50.060;14.288;2022-12-29T00:33:20;96932.16;;;5.44;72.42
77003;BME280;65939;50.060;14.288;2022-12-29T00:35:47;96915.44;;;5.48;72.41
77003;BME280;65939;50.060;14.288;2022-12-29T00:37:52;96908.31;;;5.50;72.07
77003;BME280;65939;50.060;14.288;2022-12-29T00:40:12;96913.25;;;5.53;71.97
77003;BME280;65939;50.060;14.288;2022-12-29T00:42:31;96914.75;;;5.56;71.98
77003;BME280;65939;50.060;14.288;2022-12-29T00:44:50;96914.34;;;5.60;71.50
77003;BME280;65939;50.060;14.288;2022-12-29T00:46:51;96920.22;;;5.62;71.60
77003;BME280;65939;50.060;14.288;2022-12-29T00:48:53;96914.75;;;5.65;71.71
77003;BME280;65939;50.060;14.288;2022-12-29T00:51:12;96916.25;;;5.68;71.43
77003;BME280;65939;50.060;14.288;2022-12-29T00:53:13;96914.22;;;5.71;70.86
77003;BME280;65939;50.060;14.288;2022-12-29T00:55:13;96921.72;;;5.74;71.14
77003;BME280;65939;50.060;14.288;2022-12-29T00:57:14;96920.66;;;5.77;70.81
77003;BME280;65939;50.060;14.288;2022-12-29T00:59:15;96911.78;;;5.80;70.67
77003;BME280;65939;50.060;14.288;2022-12-29T01:01:16;96904.69;;;5.82;70.05
77003;BME280;65939;50.060;14.288;2022-12-29T01:03:17;96905.38;;;5.84;70.33
77003;BME280;65939;50.060;14.288;2022-12-29T01:05:17;96908.66;;;5.86;70.07
77003;BME280;65939;50.060;14.288;2022-12-29T01:07:18;96905.09;;;5.87;70.38
77003;BME280;65939;50.060;14.288;2022-12-29T01:09:19;96899.78;;;5.88;69.70
77003;BME280;65939;50.060;14.288;2022-12-29T01:11:39;96897.88;;;5.90;69.26
77003;BME280;65939;50.060;14.288;2022-12-29T01:13:39;96897.75;;;5.92;70.06
77003;BME280;65939;50.060;14.288;2022-12-29T01:15:49;96899.41;;;5.93;69.68
77003;BME280;65939;50.060;14.288;2022-12-29T01:17:50;96893.25;;;5.94;69.45
77003;BME280;65939;50.060;14.288;2022-12-29T01:19:50;96900.09;;;5.95;69.09
77003;BME280;65939;50.060;14.288;2022-12-29T01:21:52;96899.84;;;5.98;69.13
77003;BME280;65939;50.060;14.288;2022-12-29T01:23:52;96896.28;;;5.99;69.04
77003;BME280;65939;50.060;14.288;2022-12-29T01:25:53;96894.34;;;6.01;69.30
77003;BME280;65939;50.060;14.288;2022-12-29T01:27:53;96892.47;;;6.03;69.06
77003;BME280;65939;50.060;14.288;2022-12-29T01:29:54;96891.50;;;6.04;68.89
77003;BME280;65939;50.060;14.288;2022-12-29T01:31:54;96887.13;;;6.05;69.40
77003;BME280;65939;50.060;14.288;2022-12-29T01:33:55;96888.78;;;6.06;69.11
77003;BME280;65939;50.060;14.288;2022-12-29T01:36:00;96894.09;;;6.04;68.90
77003;BME280;65939;50.060;14.288;2022-12-29T01:38:01;96890.69;;;6.04;69.41
77003;BME280;65939;50.060;14.288;2022-12-29T01:40:02;96888.22;;;6.02;69.28
77003;BME280;65939;50.060;14.288;2022-12-29T01:42:03;96881.41;;;6.01;69.50
77003;BME280;65939;50.060;14.288;2022-12-29T01:46:59;96882.25;;;6.02;69.10
77003;BME280;65939;50.060;14.288;2022-12-29T01:49:18;96877.06;;;6.02;70.07
77003;BME280;65939;50.060;14.288;2022-12-29T01:51:22;96880.59;;;6.00;69.55
77003;BME280;65939;50.060;14.288;2022-12-29T01:53:32;96877.06;;;6.02;69.19
77003;BME280;65939;50.060;14.288;2022-12-29T01:55:40;96871.88;;;6.02;69.75
77003;BME280;65939;50.060;14.288;2022-12-29T01:57:47;96874.59;;;6.00;69.33
77003;BME280;65939;50.060;14.288;2022-12-29T01:59:56;96869.56;;;5.98;69.70
77003;BME280;65939;50.060;14.288;2022-12-29T02:01:59;96869.81;;;5.95;69.62
77003;BME280;65939;50.060;14.288;2022-12-29T02:04:01;96874.19;;;5.95;69.50
77003;BME280;65939;50.060;14.288;2022-12-29T02:06:18;96875.97;;;5.94;69.45
77003;BME280;65939;50.060;14.288;2022-12-29T02:08:26;96874.31;;;5.93;69.54
77003;BME280;65939;50.060;14.288;2022-12-29T02:10:30;96871.03;;;5.91;69.95
77003;BME280;65939;50.060;14.288;2022-12-29T02:12:33;96869.38;;;5.90;69.92
77003;BME280;65939;50.060;14.288;2022-12-29T02:14:34;96873.88;;;5.88;69.18
77003;BME280;65939;50.060;14.288;2022-12-29T02:33:49;96873.19;;;6.15;69.21
77003;BME280;65939;50.060;14.288;2022-12-29T02:40:48;96856.56;;;6.28;68.08
77003;BME280;65939;50.060;14.288;2022-12-29T02:47:19;96847.09;;;6.36;67.70
77003;BME280;65939;50.060;14.288;2022-12-29T02:49:36;96849.44;;;6.39;68.30
77003;BME280;65939;50.060;14.288;2022-12-29T02:53:46;96847.25;;;6.44;68.07
77003;BME280;65939;50.060;14.288;2022-12-29T02:56:05;96841.91;;;6.46;68.16
77003;BME280;65939;50.060;14.288;2022-12-29T03:00:14;96841.78;;;6.47;68.16
77003;BME280;65939;50.060;14.288;2022-12-29T03:02:22;96835.75;;;6.47;67.95
77003;BME280;65939;50.060;14.288;2022-12-29T03:07:18;96827.97;;;6.47;68.12
77003;BME280;65939;50.060;14.288;2022-12-29T03:09:45;96823.63;;;6.47;67.66
77003;BME280;65939;50.060;14.288;2022-12-29T03:17:26;96814.59;;;6.52;67.06
77003;BME280;65939;50.060;14.288;2022-12-29T03:19:36;96817.03;;;6.53;67.13
77003;BME280;65939;50.060;14.288;2022-12-29T03:21:43;96808.28;;;6.54;67.78
77003;BME280;65939;50.060;14.288;2022-12-29T03:24:03;96812.53;;;6.55;67.12
77003;BME280;65939;50.060;14.288;2022-12-29T03:26:09;96811.56;;;6.56;67.82
77003;BME280;65939;50.060;14.288;2022-12-29T03:28:18;96826.16;;;6.57;68.17
77003;BME280;65939;50.060;14.288;2022-12-29T03:30:22;96827.13;;;6.56;67.59
77003;BME280;65939;50.060;14.288;2022-12-29T03:32:47;96829.72;;;6.56;68.12
77003;BME280;65939;50.060;14.288;2022-12-29T03:34:50;96828.91;;;6.56;67.97
77003;BME280;65939;50.060;14.288;2022-12-29T03:36:55;96836.53;;;6.57;68.36
77003;BME280;65939;50.060;14.288;2022-12-29T03:39:08;96839.81;;;6.59;67.78
77003;BME280;65939;50.060;14.288;2022-12-29T03:41:14;96832.03;;;6.59;67.79
77003;BME280;65939;50.060;14.288;2022-12-29T03:43:18;96830.78;;;6.63;68.00
77003;BME280;65939;50.060;14.288;2022-12-29T03:45:20;96826.28;;;6.65;67.70
77003;BME280;65939;50.060;14.288;2022-12-29T03:47:20;96824.38;;;6.67;67.18
77003;BME280;65939;50.060;14.288;2022-12-29T03:49:21;96826.00;;;6.68;67.88
77003;BME280;65939;50.060;14.288;2022-12-29T03:51:22;96826.66;;;6.70;68.43
77003;BME280;65939;50.060;14.288;2022-12-29T03:53:23;96821.50;;;6.70;68.17
77003;BME280;65939;50.060;14.288;2022-12-29T03:55:23;96819.84;;;6.69;67.79
77003;BME280;65939;50.060;14.288;2022-12-29T03:57:24;96824.06;;;6.70;67.37
77003;BME280;65939;50.060;14.288;2022-12-29T03:59:24;96822.44;;;6.69;68.57
77003;BME280;65939;50.060;14.288;2022-12-29T04:01:25;96818.09;;;6.70;67.91
77003;BME280;65939;50.060;14.288;2022-12-29T04:03:25;96824.25;;;6.69;68.07
77003;BME280;65939;50.060;14.288;2022-12-29T04:05:26;96822.56;;;6.68;68.09
77003;BME280;65939;50.060;14.288;2022-12-29T04:07:27;96820.94;;;6.67;67.73
77003;BME280;65939;50.060;14.288;2022-12-29T04:09:27;96814.94;;;6.66;67.84
77003;BME280;65939;50.060;14.288;2022-12-29T04:11:28;96818.50;;;6.65;68.47
77003;BME280;65939;50.060;14.288;2022-12-29T04:13:28;96807.16;;;6.66;68.30
77003;BME280;65939;50.060;14.288;2022-12-29T04:15:29;96812.34;;;6.66;68.21
77003;BME280;65939;50.060;14.288;2022-12-29T04:17:30;96808.66;;;6.69;67.93
77003;BME280;65939;50.060;14.288;2022-12-29T04:19:30;96819.84;;;6.69;67.73
77003;BME280;65939;50.060;14.288;2022-12-29T04:21:31;96817.09;;;6.71;68.03
77003;BME280;65939;50.060;14.288;2022-12-29T04:23:35;96815.19;;;6.73;68.61
77003;BME280;65939;50.060;14.288;2022-12-29T04:25:36;96810.66;;;6.75;67.92
77003;BME280;65939;50.060;14.288;2022-12-29T04:27:37;96810.66;;;6.75;67.46
77003;BME280;65939;50.060;14.288;2022-12-29T04:29:37;96808.06;;;6.75;67.36
77003;BME280;65939;50.060;14.288;2022-12-29T04:31:38;96809.03;;;6.74;67.16
77003;BME280;65939;50.060;14.288;2022-12-29T04:33:38;96802.06;;;6.75;67.71
77003;BME280;65939;50.060;14.288;2022-12-29T04:35:39;96795.09;;;6.75;67.98
77003;BME280;65939;50.060;14.288;2022-12-29T04:37:40;96792.50;;;6.75;67.92
77003;BME280;65939;50.060;14.288;2022-12-29T04:39:40;96792.22;;;6.78;67.80
77003;BME280;65939;50.060;14.288;2022-12-29T04:41:41;96786.22;;;6.78;67.45
77003;BME280;65939;50.060;14.288;2022-12-29T04:43:42;96781.03;;;6.78;67.78
77003;BME280;65939;50.060;14.288;2022-12-29T04:45:43;96776.81;;;6.77;67.76
77003;BME280;65939;50.060;14.288;2022-12-29T04:47:44;96782.00;;;6.77;67.44
77003;BME280;65939;50.060;14.288;2022-12-29T04:49:44;96782.00;;;6.77;68.08
77003;BME280;65939;50.060;14.288;2022-12-29T04:51:45;96772.56;;;6.76;67.42
77003;BME280;65939;50.060;14.288;2022-12-29T04:53:46;96784.59;;;6.77;67.15
77003;BME280;65939;50.060;14.288;2022-12-29T04:55:51;96787.03;;;6.78;67.03
77003;BME280;65939;50.060;14.288;2022-12-29T04:57:52;96798.22;;;6.79;67.48
77003;BME280;65939;50.060;14.288;2022-12-29T04:59:52;96804.91;;;6.81;68.04
77003;BME280;65939;50.060;14.288;2022-12-29T05:01:53;96806.53;;;6.82;67.86
77003;BME280;65939;50.060;14.288;2022-12-29T05:03:53;96814.19;;;6.84;67.40
77003;BME280;65939;50.060;14.288;2022-12-29T05:05:56;96807.22;;;6.84;67.02
77003;BME280;65939;50.060;14.288;2022-12-29T05:07:57;96811.31;;;6.87;66.91
77003;BME280;65939;50.060;14.288;2022-12-29T05:09:57;96809.38;;;6.89;67.69
77003;BME280;65939;50.060;14.288;2022-12-29T05:11:58;96801.47;;;6.90;67.81
77003;BME280;65939;50.060;14.288;2022-12-29T05:13:58;96810.88;;;6.91;66.88
77003;BME280;65939;50.060;14.288;2022-12-29T05:15:59;96810.72;;;6.93;66.82
77003;BME280;65939;50.060;14.288;2022-12-29T05:18:00;96802.00;;;6.94;67.11
77003;BME280;65939;50.060;14.288;2022-12-29T05:20:00;96809.63;;;6.95;66.31
77003;BME280;65939;50.060;14.288;2022-12-29T05:22:01;96806.34;;;6.93;66.98
77003;BME280;65939;50.060;14.288;2022-12-29T05:24:01;96798.72;;;6.92;67.07
77003;BME280;65939;50.060;14.288;2022-12-29T05:26:02;96799.69;;;6.91;66.49
77003;BME280;65939;50.060;14.288;2022-12-29T05:28:03;96804.06;;;6.90;67.06
77003;BME280;65939;50.060;14.288;2022-12-29T05:30:04;96793.81;;;6.89;66.96
77003;BME280;65939;50.060;14.288;2022-12-29T05:32:05;96791.38;;;6.87;68.39
77003;BME280;65939;50.060;14.288;2022-12-29T05:34:06;96794.78;;;6.88;67.69
77003;BME280;65939;50.060;14.288;2022-12-29T05:36:08;96788.63;;;6.89;67.73
77003;BME280;65939;50.060;14.288;2022-12-29T05:38:09;96785.06;;;6.90;67.49
77003;BME280;65939;50.060;14.288;2022-12-29T05:40:10;96784.25;;;6.89;67.85
77003;BME280;65939;50.060;14.288;2022-12-29T05:42:11;96779.88;;;6.90;68.35
77003;BME280;65939;50.060;14.288;2022-12-29T05:44:12;96777.97;;;6.92;67.71
77003;BME280;65939;50.060;14.288;2022-12-29T05:46:12;96782.19;;;6.93;67.39
77003;BME280;65939;50.060;14.288;2022-12-29T05:48:13;96767.28;;;6.95;67.40
77003;BME280;65939;50.060;14.288;2022-12-29T05:50:13;96771.38;;;6.98;68.03
77003;BME280;65939;50.060;14.288;2022-12-29T05:52:14;96772.03;;;7.00;66.78
77003;BME280;65939;50.060;14.288;2022-12-29T05:54:15;96767.53;;;7.02;67.42
77003;BME280;65939;50.060;14.288;2022-12-29T05:56:15;96772.44;;;7.05;66.66
77003;BME280;65939;50.060;14.288;2022-12-29T05:58:17;96773.75;;;7.09;67.61
77003;BME280;65939;50.060;14.288;2022-12-29T06:00:18;96779.59;;;7.11;67.06
77003;BME280;65939;50.060;14.288;2022-12-29T06:02:19;96778.66;;;7.12;67.68
77003;BME280;65939;50.060;14.288;2022-12-29T06:04:20;96773.31;;;7.13;67.32
77003;BME280;65939;50.060;14.288;2022-12-29T06:06:20;96777.69;;;7.13;67.79
77003;BME280;65939;50.060;14.288;2022-12-29T06:08:21;96777.53;;;7.14;68.11
77003;BME280;65939;50.060;14.288;2022-12-29T06:10:21;96777.69;;;7.13;68.14
77003;BME280;65939;50.060;14.288;2022-12-29T06:12:22;96780.94;;;7.15;68.54
77003;BME280;65939;50.060;14.288;2022-12-29T06:14:22;96780.81;;;7.16;68.30
77003;BME280;65939;50.060;14.288;2022-12-29T06:16:23;96782.44;;;7.17;67.91
77003;BME280;65939;50.060;14.288;2022-12-29T06:18:23;96778.88;;;7.18;67.52
77003;BME280;65939;50.060;14.288;2022-12-29T06:20:24;96785.72;;;7.19;68.80
77003;BME280;65939;50.060;14.288;2022-12-29T06:22:25;96783.78;;;7.22;68.01
77003;BME280;65939;50.060;14.288;2022-12-29T06:24:26;96791.28;;;7.25;69.00
77003;BME280;65939;50.060;14.288;2022-12-29T06:26:26;96781.84;;;7.24;68.50
77003;BME280;65939;50.060;14.288;2022-12-29T06:28:27;96794.69;;;7.25;68.15
77003;BME280;65939;50.060;14.288;2022-12-29T06:30:28;96789.50;;;7.25;68.63
77003;BME280;65939;50.060;14.288;2022-12-29T06:32:28;96785.25;;;7.24;68.25
77003;BME280;65939;50.060;14.288;2022-12-29T06:34:29;96782.66;;;7.24;68.92
77003;BME280;65939;50.060;14.288;2022-12-29T06:36:29;96782.84;;;7.23;68.73
77003;BME280;65939;50.060;14.288;2022-12-29T06:38:30;96788.03;;;7.23;69.08
77003;BME280;65939;50.060;14.288;2022-12-29T06:40:31;96788.03;;;7.23;69.60
77003;BME280;65939;50.060;14.288;2022-12-29T06:42:31;96784.59;;;7.22;69.03
77003;BME280;65939;50.060;14.288;2022-12-29T06:44:32;96788.97;;;7.22;69.29
77003;BME280;65939;50.060;14.288;2022-12-29T06:46:33;96787.34;;;7.20;68.74
77003;BME280;65939;50.060;14.288;2022-12-29T06:48:33;96788.31;;;7.19;68.74
77003;BME280;65939;50.060;14.288;2022-12-29T06:50:34;96785.84;;;7.18;68.87
77003;BME280;65939;50.060;14.288;2022-12-29T06:52:35;96788.72;;;7.15;68.97
77003;BME280;65939;50.060;14.288;2022-12-29T06:54:36;96787.91;;;7.14;69.88
77003;BME280;65939;50.060;14.288;2022-12-29T06:56:36;96791.50;;;7.13;69.77
77003;BME280;65939;50.060;14.288;2022-12-29T06:58:37;96789.88;;;7.12;69.05
77003;BME280;65939;50.060;14.288;2022-12-29T07:00:37;96786.28;;;7.13;68.74
77003;BME280;65939;50.060;14.288;2022-12-29T07:02:38;96786.13;;;7.15;69.79
77003;BME280;65939;50.060;14.288;2022-12-29T07:04:38;96790.91;;;7.19;69.81
77003;BME280;65939;50.060;14.288;2022-12-29T07:06:39;96796.47;;;7.25;68.88
77003;BME280;65939;50.060;14.288;2022-12-29T07:08:40;96796.00;;;7.29;68.87
77003;BME280;65939;50.060;14.288;2022-12-29T07:10:41;96803.38;;;7.34;69.08
77003;BME280;65939;50.060;14.288;2022-12-29T07:12:42;96801.16;;;7.39;69.12
77003;BME280;65939;50.060;14.288;2022-12-29T07:14:42;96798.94;;;7.44;68.45
77003;BME280;65939;50.060;14.288;2022-12-29T07:16:43;96804.66;;;7.48;68.46
77003;BME280;65939;50.060;14.288;2022-12-29T07:18:43;96804.88;;;7.54;68.49
77003;BME280;65939;50.060;14.288;2022-12-29T07:20:44;96808.53;;;7.61;68.00
77003;BME280;65939;50.060;14.288;2022-12-29T07:22:45;96814.59;;;7.70;68.11
77003;BME280;65939;50.060;14.288;2022-12-29T07:24:47;96798.13;;;7.79;67.78
77003;BME280;65939;50.060;14.288;2022-12-29T07:26:47;96794.75;;;7.87;67.15
77003;BME280;65939;50.060;14.288;2022-12-29T07:28:48;96800.81;;;7.96;66.32
77003;BME280;65939;50.060;14.288;2022-12-29T07:30:49;96793.25;;;8.02;65.83
77003;BME280;65939;50.060;14.288;2022-12-29T07:32:49;96790.84;;;8.09;65.71
77003;BME280;65939;50.060;14.288;2022-12-29T07:34:50;96787.47;;;8.16;65.96
77003;BME280;65939;50.060;14.288;2022-12-29T07:36:50;96791.09;;;8.24;65.87
77003;BME280;65939;50.060;14.288;2022-12-29T07:38:51;96787.91;;;8.30;65.54
77003;BME280;65939;50.060;14.288;2022-12-29T07:40:56;96797.03;;;8.34;65.35
77003;BME280;65939;50.060;14.288;2022-12-29T07:42:57;96793.31;;;8.36;65.34
77003;BME280;65939;50.060;14.288;2022-12-29T07:44:58;96797.56;;;8.37;65.11
77003;BME280;65939;50.060;14.288;2022-12-29T07:46:58;96801.91;;;8.37;65.83
77003;BME280;65939;50.060;14.288;2022-12-29T07:48:59;96794.97;;;8.37;64.88
77003;BME280;65939;50.060;14.288;2022-12-29T07:50:59;96797.41;;;8.39;64.58
77003;BME280;65939;50.060;14.288;2022-12-29T07:53:00;96801.66;;;8.40;64.60
77003;BME280;65939;50.060;14.288;2022-12-29T07:55:01;96790.94;;;8.43;64.35
77003;BME280;65939;50.060;14.288;2022-12-29T07:57:01;96792.09;;;8.49;64.18
77003;BME280;65939;50.060;14.288;2022-12-29T07:59:02;96795.88;;;8.54;64.41
77003;BME280;65939;50.060;14.288;2022-12-29T08:01:03;96798.81;;;8.59;64.11
77003;BME280;65939;50.060;14.288;2022-12-29T08:03:04;96796.72;;;8.63;63.34
77003;BME280;65939;50.060;14.288;2022-12-29T08:05:05;96793.50;;;8.69;63.48
77003;BME280;65939;50.060;14.288;2022-12-29T08:07:05;96800.03;;;8.73;63.83
77003;BME280;65939;50.060;14.288;2022-12-29T08:09:06;96800.34;;;8.78;63.17
77003;BME280;65939;50.060;14.288;2022-12-29T08:11:06;96793.03;;;8.82;62.77
77003;BME280;65939;50.060;14.288;2022-12-29T08:13:07;96798.63;;;8.87;63.21
77003;BME280;65939;50.060;14.288;2022-12-29T08:15:09;96786.25;;;8.89;62.69
77003;BME280;65939;50.060;14.288;2022-12-29T08:17:10;96784.00;;;8.94;62.31
77003;BME280;65939;50.060;14.288;2022-12-29T08:19:12;96787.91;;;8.98;62.97
77003;BME280;65939;50.060;14.288;2022-12-29T08:21:13;96784.00;;;9.02;62.35
77003;BME280;65939;50.060;14.288;2022-12-29T08:23:13;96788.72;;;9.07;62.62
77003;BME280;65939;50.060;14.288;2022-12-29T08:25:14;96786.81;;;9.09;62.50
77003;BME280;65939;50.060;14.288;2022-12-29T08:27:15;96787.13;;;9.14;62.67
77003;BME280;65939;50.060;14.288;2022-12-29T08:29:16;96785.19;;;9.16;62.07
77003;BME280;65939;50.060;14.288;2022-12-29T08:31:17;96794.50;;;9.19;62.40
77003;BME280;65939;50.060;14.288;2022-12-29T08:33:17;96795.78;;;9.23;62.45
77003;BME280;65939;50.060;14.288;2022-12-29T08:35:18;96804.09;;;9.26;62.50
77003;BME280;65939;50.060;14.288;2022-12-29T08:37:19;96800.19;;;9.30;61.92
77003;BME280;65939;50.060;14.288;2022-12-29T08:39:19;96800.69;;;9.34;61.66
77003;BME280;65939;50.060;14.288;2022-12-29T08:41:20;96798.28;;;9.41;61.65
77003;BME280;65939;50.060;14.288;2022-12-29T08:43:20;96799.25;;;9.48;61.55
77003;BME280;65939;50.060;14.288;2022-12-29T08:45:21;96799.44;;;9.54;61.53
77003;BME280;65939;50.060;14.288;2022-12-29T08:47:21;96806.63;;;9.61;61.90
77003;BME280;65939;50.060;14.288;2022-12-29T08:49:22;96803.19;;;9.68;61.45
77003;BME280;65939;50.060;14.288;2022-12-29T08:51:23;96812.00;;;9.75;61.37
77003;BME280;65939;50.060;14.288;2022-12-29T08:53:23;96813.78;;;9.83;61.43
77003;BME280;65939;50.060;14.288;2022-12-29T08:55:24;96818.00;;;9.92;61.08
77003;BME280;65939;50.060;14.288;2022-12-29T08:57:24;96815.56;;;9.99;61.32
77003;BME280;65939;50.060;14.288;2022-12-29T08:59:25;96813.78;;;10.07;61.02
77003;BME280;65939;50.060;14.288;2022-12-29T09:01:26;96826.81;;;10.16;60.69
77003;BME280;65939;50.060;14.288;2022-12-29T09:03:26;96826.00;;;10.23;60.12
77003;BME280;65939;50.060;14.288;2022-12-29T09:05:27;96824.38;;;10.30;60.82
77003;BME280;65939;50.060;14.288;2022-12-29T09:07:27;96816.53;;;10.39;59.99
77003;BME280;65939;50.060;14.288;2022-12-29T09:09:28;96822.75;;;10.46;60.14
77003;BME280;65939;50.060;14.288;2022-12-29T09:11:29;96821.25;;;10.51;59.82
77003;BME280;65939;50.060;14.288;2022-12-29T09:13:29;96812.75;;;10.58;60.36
77003;BME280;65939;50.060;14.288;2022-12-29T09:15:30;96814.72;;;10.64;59.70
77003;BME280;65939;50.060;14.288;2022-12-29T09:17:31;96814.69;;;10.72;59.47
77003;BME280;65939;50.060;14.288;2022-12-29T09:19:44;96821.47;;;10.81;59.96
77003;BME280;65939;50.060;14.288;2022-12-29T09:21:45;96829.47;;;10.88;59.69
77003;BME280;65939;50.060;14.288;2022-12-29T09:23:45;96834.03;;;10.94;59.64
77003;BME280;65939;50.060;14.288;2022-12-29T09:25:47;96826.31;;;11.00;59.11
77003;BME280;65939;50.060;14.288;2022-12-29T09:27:48;96826.63;;;11.06;59.43
77003;BME280;65939;50.060;14.288;2022-12-29T09:29:48;96826.94;;;11.11;59.12
77003;BME280;65939;50.060;14.288;2022-12-29T09:31:49;96836.22;;;11.13;58.97
77003;BME280;65939;50.060;14.288;2022-12-29T09:33:50;96825.91;;;11.20;58.45
77003;BME280;65939;50.060;14.288;2022-12-29T09:35:56;96823.13;;;11.21;58.17
77003;BME280;65939;50.060;14.288;2022-12-29T09:37:57;96824.41;;;11.25;58.06
77003;BME280;65939;50.060;14.288;2022-12-29T09:39:58;96826.50;;;11.30;58.12
77003;BME280;65939;50.060;14.288;2022-12-29T09:44:46;96826.78;;;11.43;57.37
77003;BME280;65939;50.060;14.288;2022-12-29T09:46:52;96815.63;;;11.49;57.65
77003;BME280;65939;50.060;14.288;2022-12-29T09:51:17;96815.38;;;11.59;56.69
77003;BME280;65939;50.060;14.288;2022-12-29T09:53:51;96818.66;;;11.61;57.38
77003;BME280;65939;50.060;14.288;2022-12-29T09:55:56;96820.47;;;11.61;56.74
77003;BME280;65939;50.060;14.288;2022-12-29T09:58:04;96821.25;;;11.61;56.64
77003;BME280;65939;50.060;14.288;2022-12-29T10:00:13;96813.75;;;11.58;56.01
77003;BME280;65939;50.060;14.288;2022-12-29T10:02:38;96804.13;;;11.59;56.41
77003;BME280;65939;50.060;14.288;2022-12-29T10:04:41;96811.81;;;11.60;56.31
77003;BME280;65939;50.060;14.288;2022-12-29T10:06:53;96803.78;;;11.62;56.30
77003;BME280;65939;50.060;14.288;2022-12-29T10:18:09;96803.44;;;11.65;55.82
77003;BME280;65939;50.060;14.288;2022-12-29T10:25:35;96793.56;;;11.75;55.09
77003;BME280;65939;50.060;14.288;2022-12-29T10:27:38;96794.00;;;11.79;56.13
77003;BME280;65939;50.060;14.288;2022-12-29T10:29:45;96800.72;;;11.81;55.20
77003;BME280;65939;50.060;14.288;2022-12-29T10:34:05;96796.59;;;11.87;55.51
77003;BME280;65939;50.060;14.288;2022-12-29T10:36:40;96797.88;;;11.91;55.57
77003;BME280;65939;50.060;14.288;2022-12-29T10:41:13;96787.69;;;11.96;56.17
77003;BME280;65939;50.060;14.288;2022-12-29T10:43:30;96781.66;;;11.95;55.30
77003;BME280;65939;50.060;14.288;2022-12-29T10:45:31;96770.19;;;11.96;55.70
77003;BME280;65939;50.060;14.288;2022-12-29T10:47:49;96771.00;;;11.97;55.66
77003;BME280;65939;50.060;14.288;2022-12-29T10:49:53;96764.78;;;11.98;56.02
77003;BME280;65939;50.060;14.288;2022-12-29T10:51:58;96768.19;;;11.98;55.48
77003;BME280;65939;50.060;14.288;2022-12-29T10:54:22;96759.53;;;11.98;55.14
77003;BME280;65939;50.060;14.288;2022-12-29T10:58:30;96749.53;;;12.02;55.24
77003;BME280;65939;50.060;14.288;2022-12-29T11:00:33;96749.53;;;12.02;55.47
77003;BME280;65939;50.060;14.288;2022-12-29T11:05:22;96744.94;;;12.04;55.69
77003;BME280;65939;50.060;14.288;2022-12-29T11:07:24;96732.47;;;12.06;55.79
77003;BME280;65939;50.060;14.288;2022-12-29T11:09:31;96737.72;;;12.06;55.65
77003;BME280;65939;50.060;14.288;2022-12-29T11:11:34;96738.56;;;12.06;55.97
77003;BME280;65939;50.060;14.288;2022-12-29T11:13:50;96741.78;;;12.08;55.97
77003;BME280;65939;50.060;14.288;2022-12-29T11:15:51;96743.41;;;12.09;55.71
77003;BME280;65939;50.060;14.288;2022-12-29T11:17:58;96741.44;;;12.11;54.83
77003;BME280;65939;50.060;14.288;2022-12-29T11:20:40;96725.72;;;12.11;55.53
77003;BME280;65939;50.060;14.288;2022-12-29T11:22:44;96729.16;;;12.12;55.63
77003;BME280;65939;50.060;14.288;2022-12-29T11:24:47;96727.53;;;12.11;55.48
77003;BME280;65939;50.060;14.288;2022-12-29T11:26:53;96724.94;;;12.11;55.12
77003;BME280;65939;50.060;14.288;2022-12-29T11:31:17;96737.66;;;12.14;55.99
77003;BME280;65939;50.060;14.288;2022-12-29T11:33:22;96728.16;;;12.13;55.87
77003;BME280;65939;50.060;14.288;2022-12-29T11:35:34;96741.25;;;12.13;55.68
77003;BME280;65939;50.060;14.288;2022-12-29T11:37:39;96731.78;;;12.12;55.41
77003;BME280;65939;50.060;14.288;2022-12-29T11:40:15;96740.09;;;12.15;56.09
77003;BME280;65939;50.060;14.288;2022-12-29T11:42:18;96737.13;;;12.18;55.99
77003;BME280;65939;50.060;14.288;2022-12-29T11:44:19;96749.66;;;12.23;55.39
77003;BME280;65939;50.060;14.288;2022-12-29T11:46:30;96744.72;;;12.28;55.63
77003;BME280;65939;50.060;14.288;2022-12-29T11:48:39;96733.50;;;12.34;55.82
77003;BME280;65939;50.060;14.288;2022-12-29T11:50:42;96741.81;;;12.38;55.72
77003;BME280;65939;50.060;14.288;2022-12-29T11:52:56;96741.91;;;12.44;56.75
77003;BME280;65939;50.060;14.288;2022-12-29T11:55:00;96741.81;;;12.53;56.32
77003;BME280;65939;50.060;14.288;2022-12-29T11:57:12;96731.59;;;12.58;55.54
77003;BME280;65939;50.060;14.288;2022-12-29T12:01:39;96730.53;;;12.67;55.42
77003;BME280;65939;50.060;14.288;2022-12-29T12:04:06;96722.31;;;12.70;55.48
77003;BME280;65939;50.060;14.288;2022-12-29T12:06:15;96732.22;;;12.75;56.53
77003;BME280;65939;50.060;14.288;2022-12-29T12:11:04;96722.44;;;12.83;55.49
77003;BME280;65939;50.060;14.288;2022-12-29T12:15:30;96729.59;;;12.89;55.08